< < Back
Terminal Aerodrome Forecast


Current Version              Previous Versions:   1  2  3  4  5  6  7  8  9  

Terminal Aerodrome Forecast

701
FTUS42 KMLB 211700 RRA
TAFDAB
TAF
KDAB 211741Z 2118/2218 04014KT P6SM FEW045 SCT250
     FM220000 05010KT P6SM FEW040 SCT250
     FM221200 07013KT P6SM VCSH SCT030 BKN050=

Latest METAR

683
SAUS80 KWBC 202000 RRG
MTRDAB
METAR KDAB 211953Z 03016KT 10SM FEW040 FEW120 FEW250 22/12 A3028 RMK AO2
SLP251 T02170122


USA.gov is the U.S. government's official web portal to all federal, state and local government web resources and services.